Terminal Aerodrome Forecast
Issued by NWS Grand Forks, ND

Home | Current Version | Previous Version | Text Only | Print | Product List | Glossary On
Versions: 1 2 3 4 5 6 7 8 9 10 11 12 13
000
FTUS43 KFGF 012324
TAFFAR
TAF
KFAR 012324Z 0200/0224 16006KT P6SM SCT150
     FM020200 15005KT P6SM BKN150
     FM021300 34011KT P6SM BKN150
     FM021600 34015G23KT P6SM SCT090=

USA.gov is the U.S. government's official web portal to all federal, state and local government web resources and services.